createdAt,value
2018-05-08T00:01:09.195Z,16.40
2018-05-08T00:03:35.389Z,16.40
2018-05-08T00:06:01.582Z,16.30
2018-05-08T00:08:27.770Z,16.30
2018-05-08T00:10:53.934Z,16.20
2018-05-08T00:13:20.132Z,16.10
2018-05-08T00:15:46.290Z,16.10
2018-05-08T00:18:12.538Z,16.00
2018-05-08T00:20:38.696Z,15.90
2018-05-08T00:23:04.885Z,15.90
2018-05-08T00:25:31.112Z,15.90
2018-05-08T00:27:57.303Z,15.90
2018-05-08T00:30:24.218Z,15.80
2018-05-08T00:32:50.417Z,15.70
2018-05-08T00:35:16.569Z,15.70
2018-05-08T00:37:42.741Z,15.70
2018-05-08T00:40:08.925Z,15.70
2018-05-08T00:42:35.186Z,15.60
2018-05-08T00:45:01.402Z,15.60
2018-05-08T00:47:27.585Z,15.60
2018-05-08T00:49:53.763Z,15.60
2018-05-08T00:52:20.743Z,15.60
2018-05-08T00:54:59.105Z,15.50
2018-05-08T00:57:25.331Z,15.50
2018-05-08T00:59:51.516Z,15.50
2018-05-08T01:02:17.686Z,15.40
2018-05-08T01:04:43.903Z,15.40
2018-05-08T01:07:10.097Z,15.40
2018-05-08T01:09:36.286Z,15.30
2018-05-08T01:12:02.483Z,15.20
2018-05-08T01:14:28.681Z,15.30
2018-05-08T01:16:54.854Z,15.20
2018-05-08T01:19:21.073Z,15.20
2018-05-08T01:21:47.245Z,15.10
2018-05-08T01:24:13.443Z,15.10
2018-05-08T01:26:40.379Z,15.00
2018-05-08T01:29:06.574Z,15.00
2018-05-08T01:31:32.796Z,15.10
2018-05-08T01:33:58.974Z,15.10
2018-05-08T01:36:25.914Z,15.10
2018-05-08T01:38:52.901Z,15.10
2018-05-08T01:41:19.109Z,15.00
2018-05-08T01:43:45.309Z,15.00
2018-05-08T01:46:11.478Z,15.00
2018-05-08T01:48:37.688Z,15.00
2018-05-08T01:51:03.911Z,15.00
2018-05-08T01:53:30.119Z,15.00
2018-05-08T01:55:56.293Z,15.00
2018-05-08T01:58:22.618Z,15.00
2018-05-08T02:00:48.774Z,14.90
2018-05-08T02:03:14.958Z,14.90
2018-05-08T02:05:41.123Z,14.90
2018-05-08T02:08:07.287Z,14.90
2018-05-08T02:10:33.544Z,14.90
2018-05-08T02:12:59.744Z,15.00
2018-05-08T02:15:25.933Z,14.90
2018-05-08T02:17:52.095Z,14.90
2018-05-08T02:20:18.349Z,14.90
2018-05-08T02:22:44.470Z,14.90
2018-05-08T02:25:10.670Z,14.90
2018-05-08T02:27:37.635Z,14.90
2018-05-08T02:30:03.894Z,14.90
2018-05-08T02:32:30.074Z,14.90
2018-05-08T02:34:56.269Z,14.80
2018-05-08T02:37:22.429Z,14.80
2018-05-08T02:39:49.355Z,14.70
2018-05-08T02:42:16.299Z,14.70
2018-05-08T02:44:42.485Z,14.70
2018-05-08T02:47:08.663Z,14.70
2018-05-08T02:49:35.587Z,14.60
2018-05-08T02:52:01.773Z,14.60
2018-05-08T02:54:27.955Z,14.60
2018-05-08T02:56:54.126Z,14.60
2018-05-08T02:59:20.301Z,14.50
2018-05-08T03:01:46.490Z,14.50
2018-05-08T03:04:12.672Z,14.50
2018-05-08T03:06:38.846Z,14.40
2018-05-08T03:09:05.086Z,14.40
2018-05-08T03:11:31.246Z,14.40
2018-05-08T03:13:58.175Z,14.40
2018-05-08T03:16:24.430Z,14.40
2018-05-08T03:18:50.631Z,14.40
2018-05-08T03:21:16.820Z,14.30
2018-05-08T03:23:43.007Z,14.30
2018-05-08T03:26:09.185Z,14.20
2018-05-08T03:28:35.362Z,14.20
2018-05-08T03:31:02.797Z,14.20
2018-05-08T03:33:28.976Z,14.20
2018-05-08T03:35:55.145Z,14.20
2018-05-08T03:38:21.331Z,14.20
2018-05-08T03:40:47.552Z,14.20
2018-05-08T03:43:13.727Z,14.20
2018-05-08T03:45:39.914Z,14.20
2018-05-08T03:48:06.087Z,14.20
2018-05-08T03:50:32.314Z,14.10
2018-05-08T03:52:58.501Z,14.10
2018-05-08T03:55:24.693Z,14.10
2018-05-08T03:57:50.859Z,14.00
2018-05-08T04:00:29.367Z,14.00
2018-05-08T04:03:07.678Z,14.00
2018-05-08T04:05:46.075Z,14.10
2018-05-08T04:08:22.331Z,14.10
2018-05-08T04:10:48.479Z,14.10
2018-05-08T04:13:14.642Z,14.10
2018-05-08T04:15:40.830Z,14.00
2018-05-08T04:18:07.126Z,14.00
2018-05-08T04:20:33.321Z,14.00
2018-05-08T04:22:59.506Z,14.00
2018-05-08T04:25:25.726Z,14.00
2018-05-08T04:27:51.906Z,14.00
2018-05-08T04:30:18.110Z,14.00
2018-05-08T04:32:44.337Z,14.00
2018-05-08T04:35:10.533Z,14.10
2018-05-08T04:37:36.717Z,14.10
2018-05-08T04:40:02.985Z,14.10
2018-05-08T04:42:29.158Z,14.10
2018-05-08T04:44:55.350Z,14.20
2018-05-08T04:47:21.581Z,14.20
2018-05-08T04:49:47.747Z,14.20
2018-05-08T04:52:13.927Z,14.20
2018-05-08T04:54:40.084Z,14.20
2018-05-08T04:57:06.335Z,14.20
2018-05-08T04:59:32.547Z,14.30
2018-05-08T05:01:58.769Z,14.30
2018-05-08T05:04:24.943Z,14.30
2018-05-08T05:06:51.162Z,14.30
2018-05-08T05:09:17.306Z,14.40
2018-05-08T05:11:43.530Z,14.40
2018-05-08T05:14:09.717Z,14.50
2018-05-08T05:16:35.957Z,14.60
2018-05-08T05:19:02.951Z,14.70
2018-05-08T05:21:29.171Z,14.60
2018-05-08T05:23:55.354Z,14.70
2018-05-08T05:26:21.559Z,14.80
2018-05-08T05:28:47.721Z,14.90
2018-05-08T05:31:13.927Z,15.00
2018-05-08T05:33:40.193Z,15.00
2018-05-08T05:36:06.387Z,15.10
2018-05-08T05:38:32.614Z,15.20
2018-05-08T05:40:58.870Z,15.20
2018-05-08T05:43:25.051Z,15.30
2018-05-08T05:45:51.250Z,15.40
2018-05-08T05:48:17.421Z,15.50
2018-05-08T05:50:43.605Z,15.50
2018-05-08T05:53:09.769Z,15.60
2018-05-08T05:55:35.950Z,15.60
2018-05-08T05:58:02.173Z,15.70
2018-05-08T06:00:28.365Z,15.80
2018-05-08T06:02:54.554Z,15.80
2018-05-08T06:05:20.794Z,15.90
2018-05-08T06:07:46.989Z,16.00
2018-05-08T06:10:13.184Z,16.00
2018-05-08T06:12:39.370Z,16.10
2018-05-08T06:15:05.944Z,16.20
2018-05-08T06:17:32.138Z,16.30
2018-05-08T06:19:58.300Z,16.30
2018-05-08T06:22:25.222Z,16.50
2018-05-08T06:24:51.427Z,16.40
2018-05-08T06:27:17.618Z,16.60
2018-05-08T06:29:43.799Z,16.70
2018-05-08T06:32:09.958Z,16.70
2018-05-08T06:34:36.149Z,16.80
2018-05-08T06:37:03.468Z,16.90
2018-05-08T06:39:29.704Z,17.10
2018-05-08T06:41:55.913Z,17.20
2018-05-08T06:44:22.232Z,17.20
2018-05-08T06:46:48.318Z,17.30
2018-05-08T06:49:14.502Z,17.40
2018-05-08T06:51:40.671Z,17.50
2018-05-08T06:54:06.865Z,17.50
2018-05-08T06:56:33.047Z,17.70
2018-05-08T06:58:59.238Z,17.80
2018-05-08T07:01:25.426Z,17.90
2018-05-08T07:03:51.602Z,17.90
2018-05-08T07:06:17.781Z,18.00
2018-05-08T07:08:43.952Z,18.10
2018-05-08T07:11:10.140Z,18.20
2018-05-08T07:13:36.323Z,18.30
2018-05-08T07:16:02.720Z,18.40
2018-05-08T07:18:28.815Z,18.40
2018-05-08T07:20:55.022Z,18.50
2018-05-08T07:23:21.202Z,18.60
2018-05-08T07:25:47.405Z,18.80
2018-05-08T07:28:13.594Z,18.80
2018-05-08T07:30:40.534Z,19.00
2018-05-08T07:33:06.765Z,18.90
2018-05-08T07:35:32.950Z,19.00
2018-05-08T07:37:59.115Z,19.20
2018-05-08T07:40:26.052Z,19.40
2018-05-08T07:42:52.213Z,19.40
2018-05-08T07:45:18.421Z,19.50
2018-05-08T07:47:45.327Z,19.60
2018-05-08T07:50:11.655Z,19.70
2018-05-08T07:52:37.822Z,19.70
2018-05-08T07:55:04.015Z,19.90
2018-05-08T07:57:30.196Z,19.90
2018-05-08T07:59:56.386Z,20.00
2018-05-08T08:02:23.292Z,20.20
2018-05-08T08:04:49.494Z,20.20
2018-05-08T08:07:15.682Z,20.30
2018-05-08T08:09:45.141Z,20.40
2018-05-08T08:12:12.189Z,20.50
2018-05-08T08:14:38.361Z,20.60
2018-05-08T08:17:06.705Z,20.70
2018-05-08T08:19:32.882Z,20.70
2018-05-08T08:21:59.081Z,20.80
2018-05-08T08:24:25.286Z,20.90
2018-05-08T08:26:51.482Z,21.10
2018-05-08T08:29:17.655Z,21.10
2018-05-08T08:31:43.859Z,21.20
2018-05-08T08:34:10.073Z,21.20
2018-05-08T08:36:36.365Z,21.30
2018-05-08T08:39:03.397Z,21.50
2018-05-08T08:41:30.341Z,21.60
2018-05-08T08:43:56.599Z,21.60
2018-05-08T08:46:22.839Z,21.70
2018-05-08T08:48:49.003Z,21.80
2018-05-08T08:51:15.183Z,21.90
2018-05-08T08:53:41.354Z,21.90
2018-05-08T08:56:10.369Z,21.90
2018-05-08T08:58:37.302Z,22.00
2018-05-08T09:01:03.529Z,22.00
2018-05-08T09:03:29.724Z,22.10
2018-05-08T09:05:55.926Z,22.20
2018-05-08T09:08:22.318Z,22.30
2018-05-08T09:10:48.534Z,22.30
2018-05-08T09:13:14.729Z,22.50
2018-05-08T09:15:40.927Z,22.50
2018-05-08T09:18:08.765Z,22.60
2018-05-08T09:20:34.942Z,22.60
2018-05-08T09:23:01.135Z,22.70
2018-05-08T09:42:44.092Z,23.30
2018-05-08T09:45:11.177Z,23.50
2018-05-08T09:47:37.382Z,23.60
2018-05-08T09:50:03.670Z,23.70
2018-05-08T09:52:30.594Z,23.80
2018-05-08T09:54:56.782Z,23.70
2018-05-08T09:57:23.031Z,23.80
2018-05-08T09:59:49.227Z,23.90
2018-05-08T10:02:15.434Z,24.00
2018-05-08T10:04:41.602Z,24.00
2018-05-08T10:07:07.796Z,24.00
2018-05-08T10:09:33.966Z,24.20
2018-05-08T10:12:00.141Z,24.20
2018-05-08T10:14:26.305Z,24.30
2018-05-08T10:16:52.572Z,24.30
2018-05-08T10:19:18.742Z,24.40
2018-05-08T10:21:44.943Z,24.50
2018-05-08T10:24:11.857Z,24.60
2018-05-08T10:26:38.125Z,24.60
2018-05-08T10:29:04.236Z,24.70
2018-05-08T10:31:31.150Z,24.70
2018-05-08T10:33:57.320Z,24.70
2018-05-08T10:36:23.544Z,24.70
2018-05-08T10:38:49.710Z,24.80
2018-05-08T10:41:15.910Z,24.80
2018-05-08T10:43:42.093Z,24.90
2018-05-08T10:46:08.309Z,24.90
2018-05-08T10:48:34.492Z,24.90
2018-05-08T10:51:00.654Z,24.90
2018-05-08T10:53:26.866Z,25.00
2018-05-08T10:55:53.032Z,25.10
2018-05-08T10:58:19.282Z,25.10
2018-05-08T11:00:45.506Z,24.90
2018-05-08T11:03:12.439Z,25.00
2018-05-08T11:05:38.605Z,25.00
2018-05-08T11:08:04.840Z,25.10
2018-05-08T11:10:31.015Z,25.20
2018-05-08T11:12:57.951Z,25.20
2018-05-08T11:15:24.137Z,25.20
2018-05-08T11:17:50.355Z,25.20
2018-05-08T11:20:16.528Z,25.10
2018-05-08T11:22:42.757Z,25.00
2018-05-08T11:25:08.961Z,25.10
2018-05-08T11:27:35.153Z,25.20
2018-05-08T11:30:01.371Z,25.40
2018-05-08T11:32:27.567Z,25.30
2018-05-08T11:34:53.750Z,25.40
2018-05-08T11:37:19.947Z,25.50
2018-05-08T11:39:46.122Z,25.50
2018-05-08T11:42:12.321Z,25.30
2018-05-08T11:44:38.554Z,25.40
2018-05-08T11:47:05.532Z,25.60
2018-05-08T11:49:31.736Z,25.60
2018-05-08T11:51:57.932Z,25.50
2018-05-08T11:54:24.146Z,25.50
2018-05-08T11:56:51.047Z,25.70
2018-05-08T11:59:17.232Z,25.70
2018-05-08T12:01:43.429Z,25.70
2018-05-08T12:04:09.651Z,25.80
2018-05-08T12:06:35.860Z,25.90
2018-05-08T12:09:02.240Z,25.80
2018-05-08T12:11:28.415Z,25.90
2018-05-08T12:13:54.634Z,25.80
2018-05-08T12:16:20.815Z,25.70
2018-05-08T12:18:47.749Z,25.90
2018-05-08T12:21:13.908Z,25.90
2018-05-08T12:23:40.110Z,25.80
2018-05-08T12:26:07.038Z,25.80
2018-05-08T12:28:33.226Z,25.70
2018-05-08T12:31:06.222Z,25.90
2018-05-08T12:33:32.455Z,26.10
2018-05-08T12:35:58.635Z,26.20
2018-05-08T12:38:24.840Z,26.30
2018-05-08T12:40:51.042Z,26.40
2018-05-08T12:43:17.242Z,26.40
2018-05-08T12:45:43.394Z,26.50
2018-05-08T12:48:09.587Z,26.60
2018-05-08T12:50:35.761Z,26.70
2018-05-08T12:53:01.958Z,26.70
2018-05-08T12:55:28.126Z,26.40
2018-05-08T12:57:55.079Z,26.30
2018-05-08T13:00:21.258Z,26.20
2018-05-08T13:02:47.461Z,26.30
2018-05-08T13:05:13.719Z,26.30
2018-05-08T13:07:39.909Z,26.30
2018-05-08T13:10:06.095Z,26.40
2018-05-08T13:12:33.021Z,26.60
2018-05-08T13:14:59.214Z,26.60
2018-05-08T13:17:25.418Z,26.70
2018-05-08T13:19:51.647Z,26.70
2018-05-08T13:22:17.825Z,26.70
2018-05-08T13:24:44.043Z,26.90
2018-05-08T13:27:10.246Z,26.90
2018-05-08T13:29:36.443Z,26.90
2018-05-08T13:32:03.466Z,27.00
2018-05-08T13:34:29.677Z,27.00
2018-05-08T13:36:56.498Z,27.10
2018-05-08T13:39:22.729Z,27.20
2018-05-08T13:41:48.943Z,27.20
2018-05-08T13:44:15.187Z,27.20
2018-05-08T13:46:41.406Z,27.20
2018-05-08T13:49:07.630Z,27.20
2018-05-08T13:51:33.826Z,27.20
2018-05-08T13:54:00.782Z,27.30
2018-05-08T13:56:26.997Z,27.20
2018-05-08T13:58:53.198Z,27.40
2018-05-08T14:01:19.378Z,27.40
2018-05-08T14:03:45.576Z,27.40
2018-05-08T14:06:12.019Z,27.20
2018-05-08T14:08:38.266Z,27.30
2018-05-08T14:11:04.468Z,27.30
2018-05-08T14:13:31.419Z,27.20
2018-05-08T14:15:57.656Z,27.20
2018-05-08T14:18:23.874Z,27.20
2018-05-08T14:20:50.069Z,27.10
2018-05-08T14:23:16.330Z,27.20
2018-05-08T14:25:42.527Z,27.20
2018-05-08T14:28:08.706Z,27.30
2018-05-08T14:30:34.910Z,27.30
2018-05-08T14:33:01.859Z,27.30
2018-05-08T14:35:28.085Z,27.30
2018-05-08T14:37:54.328Z,27.40
2018-05-08T14:40:20.569Z,27.40
2018-05-08T14:42:46.800Z,27.30
2018-05-08T14:45:13.121Z,27.30
2018-05-08T14:47:39.309Z,27.30
2018-05-08T14:50:05.497Z,27.30
2018-05-08T14:52:31.710Z,27.40
2018-05-08T14:54:57.918Z,27.40
2018-05-08T14:57:24.101Z,27.40
2018-05-08T14:59:50.310Z,27.40
2018-05-08T15:02:16.519Z,27.40
2018-05-08T15:04:42.716Z,27.40
2018-05-08T15:07:08.885Z,27.30
2018-05-08T15:09:35.090Z,27.30
2018-05-08T15:12:01.322Z,27.30
2018-05-08T15:14:27.545Z,27.30
2018-05-08T15:16:53.771Z,27.20
2018-05-08T15:19:20.001Z,27.20
2018-05-08T15:21:46.265Z,27.20
2018-05-08T15:24:12.470Z,27.30
2018-05-08T15:26:38.650Z,27.30
2018-05-08T15:29:04.855Z,27.30
2018-05-08T15:31:31.049Z,27.40
2018-05-08T15:33:57.271Z,27.30
2018-05-08T15:36:23.470Z,27.30
2018-05-08T15:38:49.672Z,27.30
2018-05-08T15:41:15.907Z,27.40
2018-05-08T15:43:42.081Z,27.90
2018-05-08T15:46:08.266Z,29.00
2018-05-08T15:48:35.190Z,31.40
2018-05-08T15:51:01.382Z,31.30
2018-05-08T15:53:27.596Z,32.80
2018-05-08T15:55:53.802Z,33.80
2018-05-08T15:58:19.973Z,34.90
2018-05-08T16:00:46.195Z,35.80
2018-05-08T16:03:12.370Z,36.90
2018-05-08T16:05:38.577Z,37.50
2018-05-08T16:08:04.785Z,38.20
2018-05-08T16:10:31.504Z,38.90
2018-05-08T16:12:57.733Z,38.80
2018-05-08T16:15:23.921Z,39.10
2018-05-08T16:17:50.843Z,38.80
2018-05-08T16:20:17.113Z,38.80
2018-05-08T16:22:43.316Z,39.20
2018-05-08T16:25:09.518Z,39.10
2018-05-08T16:27:35.806Z,39.10
2018-05-08T16:30:02.065Z,39.00
2018-05-08T16:32:28.292Z,38.70
2018-05-08T16:34:54.567Z,38.60
2018-05-08T16:37:20.823Z,38.50
2018-05-08T16:39:47.053Z,38.50
2018-05-08T16:42:13.231Z,38.40
2018-05-08T16:44:40.064Z,38.40
2018-05-08T16:47:06.418Z,38.20
2018-05-08T16:49:33.340Z,37.70
2018-05-08T16:52:00.351Z,37.70
2018-05-08T16:54:26.546Z,37.70
2018-05-08T16:56:52.749Z,37.50
2018-05-08T16:59:18.935Z,37.60
2018-05-08T17:01:45.871Z,37.00
2018-05-08T17:04:12.145Z,37.00
2018-05-08T17:06:39.210Z,36.70
2018-05-08T17:09:05.444Z,36.70
2018-05-08T17:11:31.774Z,36.80
2018-05-08T17:13:59.030Z,36.60
2018-05-08T17:16:25.327Z,36.50
2018-05-08T17:18:51.539Z,36.10
2018-05-08T17:21:17.758Z,36.10
2018-05-08T17:23:44.015Z,36.10
2018-05-08T17:26:10.458Z,36.20
2018-05-08T17:28:36.633Z,36.00
2018-05-08T17:31:03.349Z,36.00
2018-05-08T17:33:29.686Z,36.10
2018-05-08T17:35:55.934Z,36.00
2018-05-08T17:38:22.195Z,35.10
2018-05-08T17:40:48.405Z,34.60
2018-05-08T17:43:14.864Z,34.00
2018-05-08T17:45:41.821Z,33.40
2018-05-08T17:48:08.223Z,33.30
2018-05-08T17:50:34.495Z,32.50
2018-05-08T17:53:00.821Z,32.10
2018-05-08T17:55:27.135Z,31.60
2018-05-08T17:57:53.613Z,31.60
2018-05-08T18:00:19.834Z,31.70
2018-05-08T18:02:46.048Z,31.70
2018-05-08T18:05:12.232Z,32.00
2018-05-08T18:07:38.566Z,32.00
2018-05-08T18:10:05.421Z,32.00
2018-05-08T18:12:31.639Z,32.10
2018-05-08T18:14:57.904Z,31.90
2018-05-08T18:17:24.293Z,31.80
2018-05-08T18:19:51.675Z,31.60
2018-05-08T18:22:17.878Z,31.60
2018-05-08T18:24:44.060Z,31.60
2018-05-08T18:27:10.261Z,31.40
2018-05-08T18:29:36.438Z,31.30
2018-05-08T18:32:02.708Z,31.00
2018-05-08T18:34:28.960Z,30.80
2018-05-08T18:36:55.216Z,30.30
2018-05-08T18:39:21.747Z,30.00
2018-05-08T18:41:47.977Z,29.80
2018-05-08T18:44:15.339Z,29.40
2018-05-08T18:46:41.548Z,29.10
2018-05-08T18:49:07.738Z,28.70
2018-05-08T18:51:34.033Z,28.40
2018-05-08T18:54:00.358Z,28.00
2018-05-08T18:56:26.574Z,27.60
2018-05-08T18:58:52.744Z,27.40
2018-05-08T19:01:18.959Z,26.90
2018-05-08T19:03:45.203Z,26.70
2018-05-08T19:06:11.462Z,26.30
2018-05-08T19:08:37.654Z,26.10
2018-05-08T19:11:10.033Z,25.70
2018-05-08T19:13:36.217Z,25.40
2018-05-08T19:16:03.340Z,25.30
2018-05-08T19:18:35.851Z,25.00
2018-05-08T19:21:02.040Z,24.80
2018-05-08T19:23:29.884Z,24.70
2018-05-08T19:25:56.131Z,24.50
2018-05-08T19:28:28.676Z,24.40
2018-05-08T19:30:54.875Z,24.20
2018-05-08T19:33:21.146Z,24.10
2018-05-08T19:35:53.286Z,23.90
2018-05-08T19:38:22.090Z,23.70
2018-05-08T19:40:49.323Z,23.50
2018-05-08T19:43:15.582Z,23.50
2018-05-08T19:45:42.694Z,23.40
2018-05-08T19:48:10.113Z,23.30
2018-05-08T19:50:36.323Z,23.20
2018-05-08T19:53:02.565Z,23.10
2018-05-08T19:55:29.068Z,23.00
2018-05-08T19:57:55.393Z,22.90
2018-05-08T20:00:21.647Z,22.80
2018-05-08T20:02:48.247Z,22.80
2018-05-08T20:05:14.470Z,22.70
2018-05-08T20:07:41.547Z,22.50
2018-05-08T20:10:08.093Z,22.50
2018-05-08T20:12:34.325Z,22.40
2018-05-08T20:15:00.570Z,22.30
2018-05-08T20:17:26.805Z,22.20
2018-05-08T20:19:52.997Z,22.00
2018-05-08T20:22:19.637Z,21.90
2018-05-08T20:24:45.855Z,21.80
2018-05-08T20:27:12.874Z,21.70
2018-05-08T20:29:39.062Z,21.60
2018-05-08T20:32:05.287Z,21.50
2018-05-08T20:34:31.478Z,21.50
2018-05-08T20:36:57.699Z,21.50
2018-05-08T20:39:23.881Z,21.40
2018-05-08T20:41:50.084Z,21.20
2018-05-08T20:44:16.590Z,21.20
2018-05-08T20:46:42.815Z,21.10
2018-05-08T20:49:09.110Z,21.00
2018-05-08T20:51:42.102Z,20.90
2018-05-08T20:54:08.321Z,20.90
2018-05-08T20:56:34.484Z,20.80
2018-05-08T20:59:00.803Z,20.70
2018-05-08T21:01:27.004Z,20.60
2018-05-08T21:03:53.208Z,20.50
2018-05-08T21:06:19.605Z,20.50
2018-05-08T21:08:45.806Z,20.50
2018-05-08T21:11:13.014Z,20.40
2018-05-08T21:13:39.256Z,20.40
2018-05-08T21:16:05.455Z,20.40
2018-05-08T21:18:31.642Z,20.30
2018-05-08T21:20:57.837Z,20.20
2018-05-08T21:23:24.092Z,20.20
2018-05-08T21:25:50.323Z,20.10
2018-05-08T21:28:22.670Z,20.10
2018-05-08T21:30:54.987Z,20.10
2018-05-08T21:33:21.917Z,20.00
2018-05-08T21:35:48.252Z,19.90
2018-05-08T21:38:16.116Z,19.90
2018-05-08T21:40:43.143Z,19.90
2018-05-08T21:43:09.411Z,19.80
2018-05-08T21:45:35.583Z,19.80
2018-05-08T21:48:01.851Z,19.80
2018-05-08T21:50:28.785Z,19.70
2018-05-08T21:52:54.981Z,19.60
2018-05-08T21:55:21.194Z,19.60
2018-05-08T21:57:47.369Z,19.50
2018-05-08T22:00:14.316Z,19.40
2018-05-08T22:02:41.253Z,19.40
2018-05-08T22:05:07.430Z,19.30
2018-05-08T22:07:33.642Z,19.30
2018-05-08T22:09:59.840Z,19.30
2018-05-08T22:12:26.087Z,19.30
2018-05-08T22:14:52.279Z,19.20
2018-05-08T22:17:18.450Z,19.20
2018-05-08T22:19:44.630Z,19.20
2018-05-08T22:22:10.802Z,19.10
2018-05-08T22:24:37.050Z,19.00
2018-05-08T22:27:03.241Z,19.00
2018-05-08T22:29:29.429Z,18.90
2018-05-08T22:31:55.611Z,18.80
2018-05-08T22:34:21.807Z,18.80
2018-05-08T22:36:47.972Z,18.80
2018-05-08T22:39:14.205Z,18.70
2018-05-08T22:41:40.387Z,18.70
2018-05-08T22:44:07.314Z,18.60
2018-05-08T22:46:33.488Z,18.50
2018-05-08T22:48:59.713Z,18.50
2018-05-08T22:51:25.899Z,18.40
2018-05-08T22:53:52.095Z,18.30
2018-05-08T22:56:18.267Z,18.30
2018-05-08T22:58:44.453Z,18.20
2018-05-08T23:01:10.617Z,18.20
2018-05-08T23:03:36.813Z,18.20
2018-05-08T23:06:03.003Z,18.20
2018-05-08T23:08:29.266Z,18.10
2018-05-08T23:10:55.438Z,18.10
2018-05-08T23:13:22.336Z,18.00
2018-05-08T23:15:48.535Z,18.00
2018-05-08T23:18:14.721Z,18.00
2018-05-08T23:20:41.649Z,17.90
2018-05-08T23:23:07.831Z,17.90
2018-05-08T23:25:34.025Z,17.90
2018-05-08T23:28:01.070Z,17.90
2018-05-08T23:30:27.250Z,17.90
2018-05-08T23:32:53.448Z,17.90
2018-05-08T23:35:19.649Z,17.80
2018-05-08T23:37:46.591Z,17.80
2018-05-08T23:40:12.785Z,17.70
2018-05-08T23:42:38.946Z,17.80
2018-05-08T23:45:05.146Z,17.70
2018-05-08T23:47:31.381Z,17.70
2018-05-08T23:49:57.573Z,17.60
2018-05-08T23:52:23.728Z,17.60
2018-05-08T23:54:49.930Z,17.60
2018-05-08T23:57:16.086Z,17.50
2018-05-08T23:59:42.280Z,17.50
